Flight Track Log - Related Links

Times and Time Zones

All times are in EDT time to prevent confusion due to time zone crossing. See the SWA2975 flight status page for this flight to view local times or setup timezone preferences in your user account.

Time Position Orientation Groundspeed Altitude Reporting Facility
EDT Latitude Longitude Course Direction KTS MPH feet Rate Location/Type
Fri 06:43:10 PM 40.8090 -111.9770 355° North 181 208 4,600  Level FlightAware ADS-B
Fri 06:43:13 PM 40.8106 -111.9781 135° Southeast 180 207 4,900 2,308 Climbing Salt Lake Center
Fri 06:43:36 PM 40.8310 -111.9800 354° North 183 211 5,600 1,692 Climbing FlightAware ADS-B
Fri 06:43:52 PM 40.8450 -111.9820 354° North 197 227 6,000 1,227 Climbing FlightAware ADS-B
Fri 06:44:20 PM 40.8720 -111.9850 355° North 227 261 6,500 1,579 Climbing FlightAware ADS-B
Fri 06:44:49 PM 40.9040 -111.9900 353° North 239 275 7,500 2,182 Climbing FlightAware ADS-B
Fri 06:44:53 PM 40.9090 -111.9900 360° North 239 275 7,700 2,051 Climbing FlightAware ADS-B
Fri 06:48:00 PM 41.1160 -111.7490 135° Southeast  Level FlightAware Approximate
Fri 06:49:21 PM 41.0290 -111.6690 135° Southeast 344 396 16,800  Level FlightAware ADS-B
Fri 06:50:01 PM 41.0310 -111.5830 88° East 361 415 18,100 1,624 Climbing FlightAware ADS-B
Fri 06:50:46 PM 41.0400 -111.4790 83° East 390 449 19,100 1,091 Climbing FlightAware ADS-B
Fri 06:51:40 PM 41.0510 -111.3570 83° East 398 458 19,900 1,163 Climbing FlightAware ADS-B
Fri 06:52:24 PM 41.0610 -111.2520 83° East 400 460 21,000 825 Climbing FlightAware ADS-B
Fri 06:53:00 PM 41.0680 -111.1780 83° East 400 460 21,000  Level FlightAware ADS-B
Fri 06:53:48 PM 41.0770 -111.0780 83° East 400 460 21,000  Level FlightAware ADS-B
Fri 06:54:24 PM 41.0840 -111.0040 83° East 400 460 21,000  Level FlightAware ADS-B
Fri 06:55:12 PM 41.0930 -110.9050 83° East 400 460 21,000  Level FlightAware ADS-B
Fri 06:55:47 PM 41.1000 -110.8320 83° East 400 460 21,000 3,726 Level FlightAware ADS-B
Fri 06:56:47 PM 41.1939 -110.6042 83° East 448 516 26,900 3,393 Climbing Salt Lake Center
Fri 06:57:49 PM 41.2400 -110.4261 71° East 455 524 27,900 1,113 Climbing Salt Lake Center
Fri 06:58:51 PM 41.2794 -110.2708 71° East 462 532 29,200 1,452 Climbing Salt Lake Center
Fri 06:59:53 PM 41.3264 -110.0858 71° East 470 541 30,900 1,403 Climbing Salt Lake Center
Fri 07:00:55 PM 41.3661 -109.9275 71° East 471 542 32,100 1,073 Climbing Salt Lake Center
Fri 07:01:56 PM 41.4058 -109.7678 72° East 474 545 33,100 1,171 Climbing Salt Lake Center
Fri 07:02:58 PM 41.4525 -109.5811 71° East 475 547 34,500 919 Climbing Salt Lake Center
Fri 07:04:00 PM 41.4925 -109.4211 71° East 473 544 35,000 242 Climbing Salt Lake Center
Fri 07:05:02 PM 41.5400 -109.2303 72° East 478 550 35,000  Level Salt Lake Center
Fri 07:06:04 PM 41.5803 -109.0631 72° East 482 555 35,000  Level Salt Lake Center
Fri 07:07:05 PM 41.6006 -108.8956 81° East 475 547 35,000  Level Salt Lake Center
Fri 07:08:07 PM 41.6158 -108.6997 84° East 472 543 35,000  Level Salt Lake Center
Fri 07:08:48 PM 41.6236 -108.5883 85° East 469 540 35,000  Level Denver Center
Fri 07:09:49 PM 41.6358 -108.4231 84° East 466 536 35,000  Level Denver Center
Fri 07:10:51 PM 41.6497 -108.2297 84° East 469 540 35,000  Level Denver Center
Fri 07:11:53 PM 41.6614 -108.0642 85° East 468 539 35,000  Level Denver Center
Fri 07:12:55 PM 41.6753 -107.8669 85° East 475 547 35,000  Level Denver Center
Fri 07:13:57 PM 41.6869 -107.6994 85° East 474 545 35,000 317 Level Denver Center
Fri 07:19:14 PM 41.7470 -106.7500 85° East 474 545 37,000 337 Climbing FlightAware ADS-B
Fri 07:19:53 PM 41.7540 -106.6350 85° East 473 544 37,000  Level FlightAware ADS-B
Fri 07:20:33 PM 41.7600 -106.5360 85° East 473 544 37,000  Level FlightAware ADS-B
Fri 07:21:24 PM 41.7690 -106.3710 86° East 474 545 37,000  Level FlightAware ADS-B
Fri 07:22:04 PM 41.7750 -106.2530 86° East 476 548 37,000  Level FlightAware ADS-B
Fri 07:22:48 PM 41.7820 -106.1250 86° East 475 547 37,000  Level FlightAware ADS-B
Fri 07:23:28 PM 41.7890 -106.0070 85° East 476 548 37,000  Level FlightAware ADS-B
Fri 07:24:08 PM 41.7870 -105.8900 91° East 476 548 37,000  Level FlightAware ADS-B
Fri 07:24:52 PM 41.7840 -105.7600 92° East 474 545 37,000  Level FlightAware ADS-B
Fri 07:25:33 PM 41.7810 -105.6410 92° East 472 543 37,000  Level FlightAware ADS-B
Fri 07:26:16 PM 41.7780 -105.5160 92° East 472 543 37,000  Level FlightAware ADS-B
Fri 07:26:57 PM 41.7750 -105.4000 92° East 470 541 37,000  Level FlightAware ADS-B
Fri 07:27:38 PM 41.7720 -105.2790 92° East 467 537 37,000  Level FlightAware ADS-B
Fri 07:28:24 PM 41.7680 -105.1430 92° East 468 539 37,000  Level FlightAware ADS-B
Fri 07:29:04 PM 41.7650 -105.0310 92° East 469 540 37,000  Level FlightAware ADS-B
Fri 07:29:48 PM 41.7610 -104.9070 92° East 470 541 37,000  Level FlightAware ADS-B
Fri 07:30:39 PM 41.7560 -104.7520 92° East 471 542 37,000  Level FlightAware ADS-B
Fri 07:31:23 PM 41.7530 -104.6290 92° East 472 543 37,000  Level FlightAware ADS-B
Fri 07:32:04 PM 41.7480 -104.5050 93° East 473 544 37,000  Level FlightAware ADS-B
Fri 07:32:48 PM 41.7440 -104.3780 92° East 473 544 37,000  Level FlightAware ADS-B
Fri 07:33:28 PM 41.7400 -104.2610 93° East 474 545 37,000  Level FlightAware ADS-B
Fri 07:34:08 PM 41.7360 -104.1440 93° East 473 544 37,000  Level FlightAware ADS-B
Fri 07:34:54 PM 41.7300 -104.0080 93° East 474 545 37,000  Level FlightAware ADS-B
Fri 07:35:31 PM 41.7260 -103.8990 93° East 475 547 37,000  Level FlightAware ADS-B
Fri 07:36:01 PM 41.7230 -103.8110 93° East 476 548 37,000  Level FlightAware ADS-B
Fri 07:36:46 PM 41.7180 -103.6820 93° East 476 548 37,000  Level FlightAware ADS-B
Fri 07:37:26 PM 41.7130 -103.5630 93° East 475 547 37,000  Level FlightAware ADS-B
Fri 07:38:09 PM 41.7070 -103.4370 94° East 474 545 37,000  Level FlightAware ADS-B
Fri 07:38:52 PM 41.7020 -103.3160 93° East 476 548 37,000  Level FlightAware ADS-B
Fri 07:39:34 PM 41.6970 -103.1910 93° East 479 551 37,000  Level FlightAware ADS-B
Fri 07:40:26 PM 41.6890 -103.0340 94° East 482 555 37,000  Level FlightAware ADS-B
Fri 07:41:07 PM 41.6850 -102.9320 93° East 482 555 37,000  Level FlightAware ADS-B
Fri 07:41:54 PM 41.6810 -102.8130 93° East 482 555 37,000  Level FlightAware ADS-B
Fri 07:42:30 PM 41.6720 -102.6630 95° East 487 560 37,000  Level FlightAware ADS-B
Fri 07:43:17 PM 41.6640 -102.5230 94° East 484 557 37,000  Level FlightAware ADS-B
Fri 07:44:00 PM 41.6580 -102.3970 94° East 481 554 37,000  Level FlightAware ADS-B
Fri 07:44:38 PM 41.6540 -102.3010 93° East 481 554 37,000  Level FlightAware ADS-B
Fri 07:45:54 PM 41.6400 -102.0610 94° East 481 554 37,000  Level FlightAware ADS-B
Fri 07:46:31 PM 41.6350 -101.9680 94° East 481 554 37,000  Level FlightAware ADS-B
Fri 07:47:09 PM 41.6300 -101.8720 94° East 481 554 37,000  Level FlightAware ADS-B
Fri 07:47:58 PM 41.6240 -101.7480 94° East 481 554 37,000  Level FlightAware ADS-B
Fri 07:48:34 PM 41.6190 -101.6570 94° East 481 554 37,000  Level FlightAware ADS-B
Fri 07:49:23 PM 41.6120 -101.5340 94° East 481 554 37,000  Level FlightAware ADS-B
Fri 07:50:00 PM 41.6080 -101.4400 93° East 481 554 37,000  Level FlightAware ADS-B
Fri 07:51:01 PM 41.5990 -101.2860 94° East 481 554 37,000  Level FlightAware ADS-B
Fri 07:51:38 PM 41.5950 -101.1930 93° East 481 554 37,000  Level FlightAware ADS-B
Fri 07:52:26 PM 41.5880 -101.0720 94° East 481 554 37,000  Level FlightAware ADS-B
Fri 07:53:02 PM 41.5830 -100.9810 94° East 481 554 37,000  Level FlightAware ADS-B
Fri 07:53:50 PM 41.5770 -100.8600 94° East 481 554 37,000  Level FlightAware ADS-B
Fri 07:54:26 PM 41.5720 -100.7690 94° East 481 554 37,000  Level FlightAware ADS-B
Fri 07:55:26 PM 41.5640 -100.6180 94° East 481 554 37,000  Level FlightAware ADS-B
Fri 07:56:30 PM 41.5236 -100.2014 94° East 480 552 37,000  Level Denver Center
Fri 07:57:31 PM 41.5114 -100.0297 95° East 483 556 37,000  Level Denver Center
Fri 07:58:33 PM 41.4956 -99.8306 96° East 483 556 37,000  Level Denver Center
Fri 07:59:35 PM 41.4814 -99.6344 95° East 486 559 37,000  Level Denver Center
Fri 08:00:37 PM 41.4675 -99.4542 96° East 487 560 37,000  Level Denver Center
Fri 08:01:39 PM 41.4533 -99.2736 96° East 489 563 37,000  Level Denver Center
Fri 08:02:41 PM 41.4389 -99.0914 96° East 491 565 37,000  Level Denver Center
Fri 08:08:41 PM 41.3870 -98.0020 96° East 480 552 37,000  Level FlightAware ADS-B
Fri 08:09:25 PM 41.3910 -97.8710 88° East 481 554 37,000  Level FlightAware ADS-B
Fri 08:10:03 PM 41.3940 -97.7560 88° East 484 557 37,000  Level FlightAware ADS-B
Fri 08:10:49 PM 41.3980 -97.6190 88° East 487 560 37,000  Level FlightAware ADS-B
Fri 08:11:33 PM 41.4010 -97.5010 88° East 488 562 37,000  Level FlightAware ADS-B
Fri 08:11:55 PM 41.4030 -97.4210 88° East 490 564 37,000  Level FlightAware ADS-B
Fri 08:12:40 PM 41.4060 -97.2870 88° East 492 566 37,000  Level FlightAware ADS-B
Fri 08:13:26 PM 41.4100 -97.1490 88° East 490 564 37,000  Level FlightAware ADS-B
Fri 08:14:02 PM 41.4120 -97.0370 89° East 490 564 37,000  Level FlightAware ADS-B
Fri 08:14:48 PM 41.4160 -96.9000 88° East 490 564 37,000  Level FlightAware ADS-B
Fri 08:15:28 PM 41.4180 -96.7800 89° East 491 565 37,000  Level FlightAware ADS-B
Fri 08:16:12 PM 41.4200 -96.6480 89° East 490 564 37,000  Level FlightAware ADS-B
Fri 08:16:52 PM 41.4220 -96.5280 89° East 489 563 37,000  Level FlightAware ADS-B
Fri 08:17:34 PM 41.4250 -96.3990 88° East 489 563 37,000  Level FlightAware ADS-B
Fri 08:18:18 PM 41.4270 -96.2690 89° East 489 563 37,000  Level FlightAware ADS-B
Fri 08:19:02 PM 41.4290 -96.1360 89° East 490 564 37,000  Level FlightAware ADS-B
Fri 08:19:42 PM 41.4310 -96.0170 89° East 490 564 37,000  Level FlightAware ADS-B
Fri 08:20:20 PM 41.4320 -95.9000 89° East 491 565 37,000  Level FlightAware ADS-B
Fri 08:21:08 PM 41.4340 -95.7580 89° East 493 567 37,000  Level FlightAware ADS-B
Fri 08:21:48 PM 41.4350 -95.6350 89° East 494 568 37,000  Level FlightAware ADS-B
Fri 08:22:26 PM 41.4360 -95.5240 89° East 493 567 37,000  Level FlightAware ADS-B
Fri 08:23:14 PM 41.4370 -95.3760 89° East 492 566 37,000  Level FlightAware ADS-B
Fri 08:23:52 PM 41.4380 -95.2620 89° East 492 566 37,000  Level FlightAware ADS-B
Fri 08:24:50 PM 41.4390 -95.0840 90° East 491 565 37,000  Level FlightAware ADS-B
Fri 08:25:30 PM 41.4400 -94.9840 89° East 491 565 37,000  Level FlightAware ADS-B
Fri 08:26:23 PM 41.4410 -94.8150 89° East 492 566 37,000  Level FlightAware ADS-B
Fri 08:27:12 PM 41.4410 -94.6760 90° East 493 567 37,000  Level FlightAware ADS-B
Fri 08:27:48 PM 41.4430 -94.5830 88° East 493 567 37,000 -717 Level FlightAware ADS-B
Fri 08:28:44 PM 41.4410 -94.3800 91° East 497 572 35,900 -688 Descending FlightAware ADS-B
Fri 08:29:24 PM 41.4410 -94.2760 90° East 497 572 35,900 -675 Level FlightAware ADS-B
Fri 08:30:04 PM 41.4400 -94.1320 90° East 497 572 35,000 -643 Descending FlightAware ADS-B
Fri 08:30:48 PM 41.4390 -93.9970 91° East 496 571 35,000  Level FlightAware ADS-B
Fri 08:31:36 PM 41.4390 -93.8530 90° East 494 568 35,000  Level FlightAware ADS-B
Fri 08:32:15 PM 41.4380 -93.7370 91° East 495 570 35,000  Level FlightAware ADS-B
Fri 08:32:59 PM 41.4400 -93.6040 89° East 490 564 35,000  Level FlightAware ADS-B
Fri 08:33:41 PM 41.4460 -93.4800 86° East 490 564 35,000  Level FlightAware ADS-B
Fri 08:34:17 PM 41.4510 -93.3660 87° East 490 564 35,000  Level FlightAware ADS-B
Fri 08:35:00 PM 41.4570 -93.2340 86° East 491 565 35,000  Level FlightAware ADS-B
Fri 08:35:46 PM 41.4630 -93.0960 87° East 493 567 35,000  Level FlightAware ADS-B
Fri 08:36:30 PM 41.4690 -92.9600 87° East 495 570 35,000  Level FlightAware ADS-B
Fri 08:37:10 PM 41.4740 -92.8390 87° East 496 571 35,000  Level FlightAware ADS-B
Fri 08:37:56 PM 41.4800 -92.7000 87° East 496 571 35,000 -714 Level FlightAware ADS-B
Fri 08:38:34 PM 41.4840 -92.5850 87° East 494 568 34,000 -1,463 Descending FlightAware ADS-B
Fri 08:39:18 PM 41.4900 -92.4520 87° East 502 578 33,000 -759 Descending FlightAware ADS-B
Fri 08:40:01 PM 41.4950 -92.3180 87° East 499 574 32,900 -667 Descending FlightAware ADS-B
Fri 08:40:39 PM 41.4990 -92.1990 87° East 499 574 32,100 -1,317 Descending FlightAware ADS-B
Fri 08:41:23 PM 41.5040 -92.0640 87° East 500 575 31,100 -1,663 Descending FlightAware ADS-B
Fri 08:42:02 PM 41.5080 -91.9470 87° East 492 566 29,800 -2,000 Descending FlightAware ADS-B
Fri 08:42:47 PM 41.5130 -91.8130 87° East 479 551 28,300 -2,022 Descending FlightAware ADS-B
Fri 08:43:31 PM 41.5170 -91.6860 88° East 472 543 26,800 -2,000 Descending FlightAware ADS-B
Fri 08:44:08 PM 41.5120 -91.5780 94° East 479 551 25,600 -1,929 Descending FlightAware ADS-B
Fri 08:44:55 PM 41.4900 -91.4400 102° East 465 535 24,100 -1,116 Descending FlightAware ADS-B
Fri 08:45:34 PM 41.4720 -91.3340 103° East 458 527 24,000 -77 Descending FlightAware ADS-B
Fri 08:46:13 PM 41.4540 -91.2270 103° East 457 526 24,000  Level FlightAware ADS-B
Fri 08:47:00 PM 41.4310 -91.0980 103° East 461 531 24,000  Level FlightAware ADS-B
Fri 08:47:39 PM 41.4130 -90.9950 103° East 461 531 24,000  Level FlightAware ADS-B
Fri 08:48:25 PM 41.3900 -90.8620 103° East 462 532 24,000  Level FlightAware ADS-B
Fri 08:49:06 PM 41.3700 -90.7490 103° East 462 532 24,000  Level FlightAware ADS-B
Fri 08:49:49 PM 41.3500 -90.6310 103° East 452 520 24,000  Level FlightAware ADS-B
Fri 08:50:41 PM 41.3260 -90.4960 103° East 448 516 24,000 -742 Level FlightAware ADS-B
Fri 08:51:26 PM 41.3040 -90.3760 104° East 430 495 22,800 -1,884 Descending FlightAware ADS-B
Fri 08:52:07 PM 41.2860 -90.2710 103° East 424 488 21,300 -1,952 Descending FlightAware ADS-B
Fri 08:52:49 PM 41.2660 -90.1630 104° East 431 496 20,100 -1,605 Descending FlightAware ADS-B
Fri 08:53:33 PM 41.2450 -90.0500 104° East 428 493 19,000 -1,481 Descending FlightAware ADS-B
Fri 08:54:10 PM 41.2280 -89.9540 103° East 429 494 18,100 -1,463 Descending FlightAware ADS-B
Fri 08:54:55 PM 41.2070 -89.8430 104° East 428 493 17,000 -1,448 Descending FlightAware ADS-B
Fri 08:55:37 PM 41.1870 -89.7340 104° East 422 486 16,000 -1,465 Descending FlightAware ADS-B
Fri 08:56:21 PM 41.1670 -89.6260 104° East 412 474 14,900 -1,500 Descending FlightAware ADS-B
Fri 08:57:01 PM 41.1640 -89.5270 92° East 396 456 13,900 -1,519 Descending FlightAware ADS-B
Fri 08:57:40 PM 41.1700 -89.4330 85° East 390 449 12,900 -1,535 Descending FlightAware ADS-B
Fri 08:58:27 PM 41.1780 -89.3230 84° East 373 429 11,700 -1,227 Descending FlightAware ADS-B
Fri 08:59:08 PM 41.1840 -89.2340 85° East 339 390 11,100 -889 Descending FlightAware ADS-B
Fri 08:59:48 PM 41.1890 -89.1540 85° East 312 359 10,500 -929 Descending FlightAware ADS-B
Fri 09:00:32 PM 41.1950 -89.0720 84° East 302 348 9,800 -761 Descending FlightAware ADS-B
Fri 09:00:59 PM 41.2080 -89.0270 69° East 289 333 9,600 -764 Descending FlightAware ADS-B
Fri 09:01:27 PM 41.2280 -88.9860 57° Northeast 287 330 9,100 -1,200 Descending FlightAware ADS-B
Fri 09:01:54 PM 41.2470 -88.9460 58° Northeast 283 326 8,500 -1,241 Descending FlightAware ADS-B
Fri 09:02:25 PM 41.2690 -88.9010 57° Northeast 283 326 7,900 -1,119 Descending FlightAware ADS-B
Fri 09:02:53 PM 41.2890 -88.8590 58° Northeast 282 325 7,400 -1,200 Descending FlightAware ADS-B
Fri 09:03:05 PM 41.2970 -88.8430 56° Northeast 281 323 7,100 -1,317 Descending FlightAware ADS-B
Fri 09:03:34 PM 41.3180 -88.7990 58° Northeast 281 323 6,500 -889 Descending FlightAware ADS-B
Fri 09:03:59 PM 41.3350 -88.7640 57° Northeast 276 318 6,300 -226 Descending FlightAware ADS-B
Fri 09:04:27 PM 41.3540 -88.7240 58° Northeast 274 315 6,300  Level FlightAware ADS-B
Fri 09:04:55 PM 41.3730 -88.6840 58° Northeast 272 313 6,300  Level FlightAware ADS-B
Fri 09:05:23 PM 41.3920 -88.6450 57° Northeast 271 312 6,300  Level FlightAware ADS-B
Fri 09:05:53 PM 41.4120 -88.6020 58° Northeast 271 312 6,300  Level FlightAware ADS-B
Fri 09:06:23 PM 41.4320 -88.5590 58° Northeast 271 312 6,300  Level FlightAware ADS-B
Fri 09:06:46 PM 41.4480 -88.5270 56° Northeast 272 313 6,300  Level FlightAware ADS-B
Fri 09:07:17 PM 41.4680 -88.4830 59° Northeast 271 312 6,300  Level FlightAware ADS-B
Fri 09:07:31 PM 41.4780 -88.4640 55° Northeast 272 313 6,300 -231 Level FlightAware ADS-B
Fri 09:07:43 PM 41.4840 -88.4450 67° East 279 321 6,200 -585 Descending FlightAware ADS-B
Fri 09:08:12 PM 41.4940 -88.3960 75° East 279 321 5,900 -842 Descending FlightAware ADS-B
Fri 09:08:40 PM 41.5040 -88.3490 74° East 278 320 5,400 -1,053 Descending FlightAware ADS-B
Fri 09:09:09 PM 41.5120 -88.3010 77° East 280 322 4,900 -1,017 Descending FlightAware ADS-B
Fri 09:09:39 PM 41.5170 -88.2500 83° East 279 321 4,400 -667 Descending FlightAware ADS-B
Fri 09:10:03 PM 41.5210 -88.2100 82° East 275 316 4,300 -113 Descending FlightAware ADS-B
Fri 09:10:32 PM 41.5250 -88.1600 84° East 274 315 4,300  Level FlightAware ADS-B
Fri 09:11:44 PM 41.5150 -88.0430 96° East 261 300 4,300  Level FlightAware ADS-B
Fri 09:12:12 PM 41.5110 -88.0070 98° East 236 272 4,300  Level FlightAware ADS-B
Fri 09:12:39 PM 41.5100 -87.9620 92° East 224 258 4,300  Level FlightAware ADS-B
Fri 09:12:53 PM 41.5120 -87.9420 82° East 223 257 4,300  Level FlightAware ADS-B
Fri 09:13:21 PM 41.5150 -87.9040 84° East 223 257 4,300  Level FlightAware ADS-B
Fri 09:13:49 PM 41.5220 -87.8660 76° East 222 255 4,300  Level FlightAware ADS-B
Fri 09:14:05 PM 41.5300 -87.8480 59° Northeast 214 246 4,300  Level FlightAware ADS-B
Fri 09:14:33 PM 41.5470 -87.8190 52° Northeast 215 247 4,300  Level FlightAware ADS-B
Fri 09:14:54 PM 41.5600 -87.7960 53° Northeast 213 245 4,300 -295 Level FlightAware ADS-B
Fri 09:19:38 PM 41.7070 -87.6410 38° Northeast 164 189 2,800 -342 Descending FlightAware ADS-B
Fri 09:19:52 PM 41.7190 -87.6580 313° West 175 201 2,600 -913 Descending FlightAware ADS-B
Fri 09:20:24 PM 41.7380 -87.6850 313° West 164 189 2,100 -857 Descending FlightAware ADS-B
Fri 09:20:48 PM 41.7500 -87.7020 313° West 147 169 1,800 -441 Descending FlightAware ADS-B
Fri 09:21:32 PM 41.7660 -87.7260 312° West 141 162 1,600 -273 Descending FlightAware ADS-B

Login

Don't have an account? Register now (free) for customized features, flight alerts, and more!